sensor_id;sensor_type;location;lat;lon;timestamp;pressure;altitude;pressure_sealevel;temperature;humidity
72336;BME280;65062;48.446;8.834;2023-03-04T00:02:28;98038.25;;;-3.92;89.02
72336;BME280;65062;48.446;8.834;2023-03-04T00:05:28;98034.75;;;-3.91;88.63
72336;BME280;65062;48.446;8.834;2023-03-04T00:08:30;98035.84;;;-3.95;88.26
72336;BME280;65062;48.446;8.834;2023-03-04T00:11:31;98044.34;;;-4.10;88.43
72336;BME280;65062;48.446;8.834;2023-03-04T00:14:32;98038.34;;;-4.09;88.83
72336;BME280;65062;48.446;8.834;2023-03-04T00:17:32;98043.44;;;-4.09;88.64
72336;BME280;65062;48.446;8.834;2023-03-04T00:20:32;98041.69;;;-4.08;87.73
72336;BME280;65062;48.446;8.834;2023-03-04T00:23:33;98039.22;;;-4.10;87.69
72336;BME280;65062;48.446;8.834;2023-03-04T00:26:33;98040.47;;;-4.17;87.95
72336;BME280;65062;48.446;8.834;2023-03-04T00:29:34;98040.53;;;-4.18;87.66
72336;BME280;65062;48.446;8.834;2023-03-04T00:32:34;98039.22;;;-4.10;86.77
72336;BME280;65062;48.446;8.834;2023-03-04T00:35:34;98037.09;;;-4.33;86.78
72336;BME280;65062;48.446;8.834;2023-03-04T00:38:35;98035.53;;;-4.36;88.26
72336;BME280;65062;48.446;8.834;2023-03-04T00:41:35;98032.06;;;-4.50;88.57
72336;BME280;65062;48.446;8.834;2023-03-04T00:44:36;98029.50;;;-4.35;88.01
72336;BME280;65062;48.446;8.834;2023-03-04T00:47:36;98034.69;;;-4.36;87.68
72336;BME280;65062;48.446;8.834;2023-03-04T00:50:37;98032.63;;;-4.45;88.03
72336;BME280;65062;48.446;8.834;2023-03-04T00:53:37;98026.06;;;-4.66;88.53
72336;BME280;65062;48.446;8.834;2023-03-04T00:56:37;98030.44;;;-4.68;89.21
72336;BME280;65062;48.446;8.834;2023-03-04T00:59:38;98025.97;;;-4.80;89.25
72336;BME280;65062;48.446;8.834;2023-03-04T01:02:39;98025.75;;;-4.60;88.78
72336;BME280;65062;48.446;8.834;2023-03-04T01:05:40;98027.06;;;-4.69;88.81
72336;BME280;65062;48.446;8.834;2023-03-04T01:08:40;98026.13;;;-4.68;88.88
72336;BME280;65062;48.446;8.834;2023-03-04T01:11:41;98028.19;;;-4.74;88.63
72336;BME280;65062;48.446;8.834;2023-03-04T01:14:41;98022.03;;;-4.70;88.60
72336;BME280;65062;48.446;8.834;2023-03-04T01:17:41;98015.84;;;-4.66;88.16
72336;BME280;65062;48.446;8.834;2023-03-04T01:20:42;98015.59;;;-4.77;89.38
72336;BME280;65062;48.446;8.834;2023-03-04T01:23:43;98015.53;;;-4.76;89.63
72336;BME280;65062;48.446;8.834;2023-03-04T01:26:43;98013.13;;;-4.63;89.94
72336;BME280;65062;48.446;8.834;2023-03-04T01:29:44;98007.94;;;-4.62;88.79
72336;BME280;65062;48.446;8.834;2023-03-04T01:32:44;98009.94;;;-4.67;88.57
72336;BME280;65062;48.446;8.834;2023-03-04T01:35:44;98010.66;;;-4.65;88.85
72336;BME280;65062;48.446;8.834;2023-03-04T01:38:45;98013.59;;;-4.88;89.15
72336;BME280;65062;48.446;8.834;2023-03-04T01:41:45;98014.81;;;-4.95;89.56
72336;BME280;65062;48.446;8.834;2023-03-04T01:44:46;98007.47;;;-5.01;89.98
72336;BME280;65062;48.446;8.834;2023-03-04T01:47:47;98002.53;;;-4.88;90.37
72336;BME280;65062;48.446;8.834;2023-03-04T01:50:48;98000.44;;;-4.80;89.48
72336;BME280;65062;48.446;8.834;2023-03-04T01:53:50;97997.50;;;-4.73;88.43
72336;BME280;65062;48.446;8.834;2023-03-04T01:56:54;97995.56;;;-4.85;89.19
72336;BME280;65062;48.446;8.834;2023-03-04T02:03:16;97998.97;;;-5.01;88.56
72336;BME280;65062;48.446;8.834;2023-03-04T02:06:19;97999.91;;;-4.87;89.08
72336;BME280;65062;48.446;8.834;2023-03-04T02:09:20;97989.91;;;-5.07;89.41
72336;BME280;65062;48.446;8.834;2023-03-04T02:12:20;97990.44;;;-5.00;89.93
72336;BME280;65062;48.446;8.834;2023-03-04T02:15:21;97986.97;;;-4.99;90.12
72336;BME280;65062;48.446;8.834;2023-03-04T02:18:23;97983.97;;;-4.90;89.50
72336;BME280;65062;48.446;8.834;2023-03-04T02:21:26;97991.16;;;-4.98;89.11
72336;BME280;65062;48.446;8.834;2023-03-04T02:24:35;97986.28;;;-5.03;88.76
72336;BME280;65062;48.446;8.834;2023-03-04T02:27:38;97975.38;;;-5.05;88.29
72336;BME280;65062;48.446;8.834;2023-03-04T02:30:38;97979.53;;;-5.19;88.85
72336;BME280;65062;48.446;8.834;2023-03-04T02:33:39;97982.22;;;-5.22;88.85
72336;BME280;65062;48.446;8.834;2023-03-04T02:36:40;97976.91;;;-5.18;89.62
72336;BME280;65062;48.446;8.834;2023-03-04T02:39:42;97984.31;;;-5.13;90.66
72336;BME280;65062;48.446;8.834;2023-03-04T02:42:44;97986.09;;;-5.15;89.38
72336;BME280;65062;48.446;8.834;2023-03-04T02:45:47;97985.50;;;-5.20;89.65
72336;BME280;65062;48.446;8.834;2023-03-04T02:48:49;97977.28;;;-5.25;89.96
72336;BME280;65062;48.446;8.834;2023-03-04T02:51:51;97983.41;;;-5.29;89.58
72336;BME280;65062;48.446;8.834;2023-03-04T02:54:52;97982.22;;;-5.39;89.13
72336;BME280;65062;48.446;8.834;2023-03-04T02:57:52;97987.09;;;-5.35;90.21
72336;BME280;65062;48.446;8.834;2023-03-04T03:00:53;97993.38;;;-5.25;89.29
72336;BME280;65062;48.446;8.834;2023-03-04T03:03:53;97990.34;;;-5.31;88.96
72336;BME280;65062;48.446;8.834;2023-03-04T03:06:54;97987.09;;;-5.35;88.69
72336;BME280;65062;48.446;8.834;2023-03-04T03:09:54;97986.03;;;-5.31;88.39
72336;BME280;65062;48.446;8.834;2023-03-04T03:12:55;97994.03;;;-5.37;89.39
72336;BME280;65062;48.446;8.834;2023-03-04T03:15:55;97982.53;;;-5.45;89.89
72336;BME280;65062;48.446;8.834;2023-03-04T03:18:55;97988.84;;;-5.52;89.70
72336;BME280;65062;48.446;8.834;2023-03-04T03:21:56;97993.25;;;-5.56;89.98
72336;BME280;65062;48.446;8.834;2023-03-04T03:24:56;97992.94;;;-5.50;91.07
72336;BME280;65062;48.446;8.834;2023-03-04T03:27:56;97983.44;;;-5.46;90.45
72336;BME280;65062;48.446;8.834;2023-03-04T03:30:57;97991.69;;;-5.58;89.96
72336;BME280;65062;48.446;8.834;2023-03-04T03:33:57;97983.72;;;-5.52;90.58
72336;BME280;65062;48.446;8.834;2023-03-04T03:36:58;97990.13;;;-5.61;90.40
72336;BME280;65062;48.446;8.834;2023-03-04T03:39:58;97984.94;;;-5.42;89.46
72336;BME280;65062;48.446;8.834;2023-03-04T03:42:58;97985.06;;;-5.45;88.55
72336;BME280;65062;48.446;8.834;2023-03-04T03:45:59;97988.59;;;-5.48;88.42
72336;BME280;65062;48.446;8.834;2023-03-04T03:48:59;97982.63;;;-5.64;89.38
72336;BME280;65062;48.446;8.834;2023-03-04T03:52:00;97983.38;;;-5.62;90.12
72336;BME280;65062;48.446;8.834;2023-03-04T03:55:00;97987.78;;;-5.65;90.05
72336;BME280;65062;48.446;8.834;2023-03-04T03:58:01;97987.19;;;-5.53;89.46
72336;BME280;65062;48.446;8.834;2023-03-04T04:01:01;97985.84;;;-5.60;89.00
72336;BME280;65062;48.446;8.834;2023-03-04T04:04:02;97986.72;;;-5.78;89.46
72336;BME280;65062;48.446;8.834;2023-03-04T04:07:02;97990.56;;;-5.70;89.71
72336;BME280;65062;48.446;8.834;2023-03-04T04:10:04;97999.47;;;-5.61;89.16
72336;BME280;65062;48.446;8.834;2023-03-04T04:13:04;97998.53;;;-5.59;88.43
72336;BME280;65062;48.446;8.834;2023-03-04T04:16:05;97992.63;;;-5.78;88.56
72336;BME280;65062;48.446;8.834;2023-03-04T04:19:06;97998.56;;;-5.77;90.13
72336;BME280;65062;48.446;8.834;2023-03-04T04:22:12;97996.03;;;-5.77;89.92
72336;BME280;65062;48.446;8.834;2023-03-04T04:25:13;97994.69;;;-5.84;89.87
72336;BME280;65062;48.446;8.834;2023-03-04T04:28:13;97995.28;;;-5.96;89.51
72336;BME280;65062;48.446;8.834;2023-03-04T04:31:13;98004.84;;;-6.01;89.88
72336;BME280;65062;48.446;8.834;2023-03-04T04:34:14;98001.56;;;-6.03;90.42
72336;BME280;65062;48.446;8.834;2023-03-04T04:37:14;97999.03;;;-5.69;88.98
72336;BME280;65062;48.446;8.834;2023-03-04T04:40:15;97999.47;;;-5.78;89.19
72336;BME280;65062;48.446;8.834;2023-03-04T04:43:15;97994.31;;;-5.77;88.88
72336;BME280;65062;48.446;8.834;2023-03-04T04:46:16;97996.09;;;-5.79;89.50
72336;BME280;65062;48.446;8.834;2023-03-04T04:49:16;97994.38;;;-5.95;89.18
72336;BME280;65062;48.446;8.834;2023-03-04T04:52:17;97996.47;;;-6.03;89.68
72336;BME280;65062;48.446;8.834;2023-03-04T04:55:17;98000.81;;;-6.05;90.07
72336;BME280;65062;48.446;8.834;2023-03-04T04:58:17;97998.13;;;-6.02;90.54
72336;BME280;65062;48.446;8.834;2023-03-04T05:01:18;97994.00;;;-5.88;90.44
72336;BME280;65062;48.446;8.834;2023-03-04T05:04:19;97991.47;;;-5.88;89.29
72336;BME280;65062;48.446;8.834;2023-03-04T05:07:19;97986.66;;;-5.94;89.13
72336;BME280;65062;48.446;8.834;2023-03-04T05:10:20;97994.97;;;-6.07;89.68
72336;BME280;65062;48.446;8.834;2023-03-04T05:13:20;97988.53;;;-5.97;88.78
72336;BME280;65062;48.446;8.834;2023-03-04T05:16:21;97986.22;;;-6.02;89.34
72336;BME280;65062;48.446;8.834;2023-03-04T05:19:21;97989.13;;;-5.92;88.91
72336;BME280;65062;48.446;8.834;2023-03-04T05:22:22;97991.91;;;-5.97;87.62
72336;BME280;65062;48.446;8.834;2023-03-04T05:25:22;97990.16;;;-6.13;88.28
72336;BME280;65062;48.446;8.834;2023-03-04T05:28:24;97995.69;;;-6.22;88.98
72336;BME280;65062;48.446;8.834;2023-03-04T05:31:24;98000.84;;;-6.24;89.26
72336;BME280;65062;48.446;8.834;2023-03-04T05:34:24;97999.41;;;-6.29;89.69
72336;BME280;65062;48.446;8.834;2023-03-04T05:37:25;98005.47;;;-5.96;90.65
72336;BME280;65062;48.446;8.834;2023-03-04T05:40:25;97998.72;;;-5.97;89.86
72336;BME280;65062;48.446;8.834;2023-03-04T05:43:26;98001.41;;;-6.00;88.87
72336;BME280;65062;48.446;8.834;2023-03-04T05:46:27;97997.66;;;-6.10;89.16
72336;BME280;65062;48.446;8.834;2023-03-04T05:49:28;97990.59;;;-6.22;89.14
72336;BME280;65062;48.446;8.834;2023-03-04T05:52:28;97991.00;;;-6.31;89.61
72336;BME280;65062;48.446;8.834;2023-03-04T05:55:28;97994.19;;;-6.26;90.61
72336;BME280;65062;48.446;8.834;2023-03-04T05:58:29;98001.97;;;-6.29;90.83
72336;BME280;65062;48.446;8.834;2023-03-04T06:01:29;98006.25;;;-6.13;91.77
72336;BME280;65062;48.446;8.834;2023-03-04T06:04:30;98010.41;;;-5.93;92.31
72336;BME280;65062;48.446;8.834;2023-03-04T06:07:31;98011.25;;;-5.76;90.55
72336;BME280;65062;48.446;8.834;2023-03-04T06:10:31;98009.59;;;-5.94;89.94
72336;BME280;65062;48.446;8.834;2023-03-04T06:13:33;98014.22;;;-6.02;90.77
72336;BME280;65062;48.446;8.834;2023-03-04T06:16:33;98012.13;;;-5.94;91.23
72336;BME280;65062;48.446;8.834;2023-03-04T06:19:34;98026.41;;;-5.90;90.82
72336;BME280;65062;48.446;8.834;2023-03-04T06:22:37;98015.84;;;-5.82;91.48
72336;BME280;65062;48.446;8.834;2023-03-04T06:25:37;98019.78;;;-5.77;90.95
72336;BME280;65062;48.446;8.834;2023-03-04T06:28:37;98024.91;;;-5.60;90.84
72336;BME280;65062;48.446;8.834;2023-03-04T06:31:38;98034.50;;;-5.48;91.29
72336;BME280;65062;48.446;8.834;2023-03-04T06:34:40;98039.16;;;-5.39;91.05
72336;BME280;65062;48.446;8.834;2023-03-04T06:37:41;98041.50;;;-5.34;90.36
72336;BME280;65062;48.446;8.834;2023-03-04T06:40:41;98036.91;;;-5.45;89.47
72336;BME280;65062;48.446;8.834;2023-03-04T06:43:43;98034.56;;;-5.49;89.87
72336;BME280;65062;48.446;8.834;2023-03-04T06:46:43;98043.88;;;-5.48;90.07
72336;BME280;65062;48.446;8.834;2023-03-04T06:49:44;98042.78;;;-5.43;90.12
72336;BME280;65062;48.446;8.834;2023-03-04T06:52:44;98046.28;;;-5.28;90.51
72336;BME280;65062;48.446;8.834;2023-03-04T06:55:45;98047.09;;;-5.11;90.06
72336;BME280;65062;48.446;8.834;2023-03-04T06:58:46;98043.66;;;-5.10;90.06
72336;BME280;65062;48.446;8.834;2023-03-04T07:01:46;98052.94;;;-5.09;90.76
72336;BME280;65062;48.446;8.834;2023-03-04T07:04:47;98060.81;;;-4.96;89.89
72336;BME280;65062;48.446;8.834;2023-03-04T07:07:47;98060.13;;;-4.83;90.36
72336;BME280;65062;48.446;8.834;2023-03-04T07:10:48;98062.31;;;-4.75;90.39
72336;BME280;65062;48.446;8.834;2023-03-04T07:13:49;98067.97;;;-4.70;90.00
72336;BME280;65062;48.446;8.834;2023-03-04T07:16:49;98071.94;;;-4.65;89.89
72336;BME280;65062;48.446;8.834;2023-03-04T07:19:50;98076.59;;;-4.56;89.44
72336;BME280;65062;48.446;8.834;2023-03-04T07:22:50;98084.13;;;-4.37;89.43
72336;BME280;65062;48.446;8.834;2023-03-04T07:25:50;98072.53;;;-4.27;89.24
72336;BME280;65062;48.446;8.834;2023-03-04T07:28:51;98078.78;;;-4.17;89.20
72336;BME280;65062;48.446;8.834;2023-03-04T07:31:53;98076.69;;;-4.09;88.90
72336;BME280;65062;48.446;8.834;2023-03-04T07:34:54;98078.72;;;-4.00;88.88
72336;BME280;65062;48.446;8.834;2023-03-04T07:37:54;98070.47;;;-3.89;88.34
72336;BME280;65062;48.446;8.834;2023-03-04T07:40:56;98074.94;;;-3.77;88.52
72336;BME280;65062;48.446;8.834;2023-03-04T07:43:57;98070.31;;;-3.71;88.43
72336;BME280;65062;48.446;8.834;2023-03-04T07:46:58;98071.19;;;-3.56;88.01
72336;BME280;65062;48.446;8.834;2023-03-04T07:49:58;98072.59;;;-3.51;87.95
72336;BME280;65062;48.446;8.834;2023-03-04T07:52:58;98079.75;;;-3.42;87.95
72336;BME280;65062;48.446;8.834;2023-03-04T07:55:59;98084.19;;;-3.30;87.78
72336;BME280;65062;48.446;8.834;2023-03-04T07:58:59;98079.03;;;-3.14;88.14
72336;BME280;65062;48.446;8.834;2023-03-04T08:02:00;98085.91;;;-3.01;87.98
72336;BME280;65062;48.446;8.834;2023-03-04T08:05:00;98080.91;;;-2.88;88.06
72336;BME280;65062;48.446;8.834;2023-03-04T08:08:00;98078.94;;;-2.69;87.64
72336;BME280;65062;48.446;8.834;2023-03-04T08:11:06;98081.41;;;-2.54;87.50
72336;BME280;65062;48.446;8.834;2023-03-04T08:14:07;98090.94;;;-2.28;87.02
72336;BME280;65062;48.446;8.834;2023-03-04T08:17:08;98085.91;;;-2.15;86.41
72336;BME280;65062;48.446;8.834;2023-03-04T08:20:09;98081.03;;;-2.05;86.35
72336;BME280;65062;48.446;8.834;2023-03-04T08:23:10;98083.03;;;-1.96;86.04
72336;BME280;65062;48.446;8.834;2023-03-04T08:26:13;98089.97;;;-1.84;86.49
72336;BME280;65062;48.446;8.834;2023-03-04T08:29:17;98094.88;;;-1.67;86.09
72336;BME280;65062;48.446;8.834;2023-03-04T08:32:19;98094.75;;;-1.52;86.05
72336;BME280;65062;48.446;8.834;2023-03-04T08:35:21;98090.91;;;-1.32;85.65
72336;BME280;65062;48.446;8.834;2023-03-04T08:38:21;98090.75;;;-1.17;85.43
72336;BME280;65062;48.446;8.834;2023-03-04T08:41:21;98098.09;;;-0.98;85.23
72336;BME280;65062;48.446;8.834;2023-03-04T08:44:22;98100.00;;;-0.50;84.08
72336;BME280;65062;48.446;8.834;2023-03-04T08:47:23;98095.78;;;-0.39;83.35
72336;BME280;65062;48.446;8.834;2023-03-04T08:50:26;98094.88;;;-0.25;83.74
72336;BME280;65062;48.446;8.834;2023-03-04T08:53:28;98088.06;;;-0.14;83.45
72336;BME280;65062;48.446;8.834;2023-03-04T08:56:28;98087.66;;;0.29;82.76
72336;BME280;65062;48.446;8.834;2023-03-04T08:59:28;98089.97;;;0.68;81.16
72336;BME280;65062;48.446;8.834;2023-03-04T09:02:29;98094.75;;;0.96;79.34
72336;BME280;65062;48.446;8.834;2023-03-04T09:05:30;98093.09;;;1.18;79.04
72336;BME280;65062;48.446;8.834;2023-03-04T09:08:32;98095.50;;;1.43;77.50
72336;BME280;65062;48.446;8.834;2023-03-04T09:11:33;98101.19;;;1.92;76.27
72336;BME280;65062;48.446;8.834;2023-03-04T09:14:34;98098.47;;;2.38;76.30
72336;BME280;65062;48.446;8.834;2023-03-04T09:17:35;98092.47;;;2.80;74.03
72336;BME280;65062;48.446;8.834;2023-03-04T09:20:35;98089.97;;;3.42;70.30
72336;BME280;65062;48.446;8.834;2023-03-04T09:23:35;98102.59;;;3.56;68.15
72336;BME280;65062;48.446;8.834;2023-03-04T09:26:36;98094.47;;;3.70;68.66
72336;BME280;65062;48.446;8.834;2023-03-04T09:29:36;98099.97;;;3.76;68.08
72336;BME280;65062;48.446;8.834;2023-03-04T09:32:37;98100.66;;;3.78;67.38
72336;BME280;65062;48.446;8.834;2023-03-04T09:35:37;98106.09;;;3.75;66.82
72336;BME280;65062;48.446;8.834;2023-03-04T09:38:38;98105.34;;;3.43;67.94
72336;BME280;65062;48.446;8.834;2023-03-04T09:41:43;98112.97;;;2.93;69.08
72336;BME280;65062;48.446;8.834;2023-03-04T09:44:45;98113.97;;;3.12;69.67
72336;BME280;65062;48.446;8.834;2023-03-04T09:47:48;98117.34;;;2.92;69.60
72336;BME280;65062;48.446;8.834;2023-03-04T09:57:48;98124.75;;;2.97;70.10
72336;BME280;65062;48.446;8.834;2023-03-04T10:00:52;98135.97;;;3.07;68.76
72336;BME280;65062;48.446;8.834;2023-03-04T10:06:57;98127.66;;;3.24;68.53
72336;BME280;65062;48.446;8.834;2023-03-04T10:10:03;98123.13;;;3.37;68.03
72336;BME280;65062;48.446;8.834;2023-03-04T10:13:12;98125.91;;;3.24;67.66
72336;BME280;65062;48.446;8.834;2023-03-04T10:16:18;98117.69;;;3.19;68.20
72336;BME280;65062;48.446;8.834;2023-03-04T10:22:48;98107.47;;;3.18;67.27
72336;BME280;65062;48.446;8.834;2023-03-04T10:25:49;98107.19;;;3.32;67.67
72336;BME280;65062;48.446;8.834;2023-03-04T10:28:52;98103.09;;;3.29;67.68
72336;BME280;65062;48.446;8.834;2023-03-04T10:31:53;98094.50;;;3.29;68.25
72336;BME280;65062;48.446;8.834;2023-03-04T10:34:55;98108.69;;;3.34;66.88
72336;BME280;65062;48.446;8.834;2023-03-04T10:38:01;98103.59;;;3.44;67.04
72336;BME280;65062;48.446;8.834;2023-03-04T10:41:19;98110.47;;;3.34;66.53
72336;BME280;65062;48.446;8.834;2023-03-04T10:44:19;98111.25;;;3.14;67.07
72336;BME280;65062;48.446;8.834;2023-03-04T10:47:23;98107.84;;;2.82;67.97
72336;BME280;65062;48.446;8.834;2023-03-04T10:50:26;98105.91;;;3.06;68.08
72336;BME280;65062;48.446;8.834;2023-03-04T10:53:32;98113.06;;;3.02;67.48
72336;BME280;65062;48.446;8.834;2023-03-04T10:59:58;98100.09;;;3.13;67.73
72336;BME280;65062;48.446;8.834;2023-03-04T11:06:28;98101.16;;;3.11;67.07
72336;BME280;65062;48.446;8.834;2023-03-04T11:09:30;98096.09;;;2.89;67.43
72336;BME280;65062;48.446;8.834;2023-03-04T11:12:33;98098.69;;;3.09;67.88
72336;BME280;65062;48.446;8.834;2023-03-04T11:18:51;98081.19;;;3.13;67.32
72336;BME280;65062;48.446;8.834;2023-03-04T11:21:52;98084.63;;;3.02;67.40
72336;BME280;65062;48.446;8.834;2023-03-04T11:24:57;98078.47;;;2.83;69.31
72336;BME280;65062;48.446;8.834;2023-03-04T11:28:25;98077.06;;;2.90;69.70
72336;BME280;65062;48.446;8.834;2023-03-04T11:31:49;98068.97;;;2.83;69.10
72336;BME280;65062;48.446;8.834;2023-03-04T11:34:59;98076.25;;;2.78;68.77
72336;BME280;65062;48.446;8.834;2023-03-04T11:41:14;98061.63;;;2.99;68.76
72336;BME280;65062;48.446;8.834;2023-03-04T11:44:18;98059.66;;;3.12;68.65
72336;BME280;65062;48.446;8.834;2023-03-04T11:47:30;98058.41;;;3.27;67.84
72336;BME280;65062;48.446;8.834;2023-03-04T11:50:50;98047.31;;;3.36;67.80
72336;BME280;65062;48.446;8.834;2023-03-04T11:57:28;98043.44;;;3.81;65.31
72336;BME280;65062;48.446;8.834;2023-03-04T12:07:19;98042.88;;;4.08;63.88
72336;BME280;65062;48.446;8.834;2023-03-04T12:17:37;98011.06;;;4.55;62.31
72336;BME280;65062;48.446;8.834;2023-03-04T12:25:08;98001.94;;;5.91;57.82
72336;BME280;65062;48.446;8.834;2023-03-04T12:31:38;97995.69;;;5.74;57.18
72336;BME280;65062;48.446;8.834;2023-03-04T12:41:44;97979.00;;;6.48;56.64
72336;BME280;65062;48.446;8.834;2023-03-04T12:48:21;97963.75;;;6.89;53.64
72336;BME280;65062;48.446;8.834;2023-03-04T12:51:31;97953.09;;;6.74;53.77
72336;BME280;65062;48.446;8.834;2023-03-04T12:54:42;97962.47;;;8.85;49.42
72336;BME280;65062;48.446;8.834;2023-03-04T12:57:44;97966.97;;;11.74;42.61
72336;BME280;65062;48.446;8.834;2023-03-04T13:01:28;97961.75;;;10.85;41.78
72336;BME280;65062;48.446;8.834;2023-03-04T13:10:29;97951.06;;;8.62;47.72
72336;BME280;65062;48.446;8.834;2023-03-04T13:13:41;97951.53;;;9.29;45.09
72336;BME280;65062;48.446;8.834;2023-03-04T13:16:47;97951.72;;;8.88;46.35
72336;BME280;65062;48.446;8.834;2023-03-04T13:19:51;97937.00;;;9.19;46.04
72336;BME280;65062;48.446;8.834;2023-03-04T13:26:30;97941.44;;;11.39;41.63
72336;BME280;65062;48.446;8.834;2023-03-04T13:29:33;97936.59;;;12.86;38.23
72336;BME280;65062;48.446;8.834;2023-03-04T13:32:37;97943.56;;;15.55;34.26
72336;BME280;65062;48.446;8.834;2023-03-04T13:35:47;97930.31;;;14.51;32.86
72336;BME280;65062;48.446;8.834;2023-03-04T13:38:57;97936.84;;;12.91;36.49
72336;BME280;65062;48.446;8.834;2023-03-04T13:42:00;97934.91;;;11.72;39.42
72336;BME280;65062;48.446;8.834;2023-03-04T13:45:00;97933.22;;;10.90;41.51
72336;BME280;65062;48.446;8.834;2023-03-04T13:48:04;97932.97;;;11.95;39.39
72336;BME280;65062;48.446;8.834;2023-03-04T13:51:14;97927.25;;;14.00;35.29
72336;BME280;65062;48.446;8.834;2023-03-04T13:54:31;97923.13;;;14.25;34.20
72336;BME280;65062;48.446;8.834;2023-03-04T13:57:35;97926.00;;;14.37;33.52
72336;BME280;65062;48.446;8.834;2023-03-04T14:00:45;97929.31;;;14.05;32.98
72336;BME280;65062;48.446;8.834;2023-03-04T14:03:46;97927.75;;;13.42;35.16
72336;BME280;65062;48.446;8.834;2023-03-04T14:06:48;97934.41;;;13.72;33.41
72336;BME280;65062;48.446;8.834;2023-03-04T14:13:13;97918.66;;;16.52;30.76
72336;BME280;65062;48.446;8.834;2023-03-04T14:16:19;97924.63;;;17.71;27.56
72336;BME280;65062;48.446;8.834;2023-03-04T14:19:32;97915.69;;;17.47;27.18
72336;BME280;65062;48.446;8.834;2023-03-04T14:22:38;97908.22;;;17.38;26.98
72336;BME280;65062;48.446;8.834;2023-03-04T14:25:39;97901.25;;;15.88;29.31
72336;BME280;65062;48.446;8.834;2023-03-04T14:28:44;97897.00;;;13.77;33.43
72336;BME280;65062;48.446;8.834;2023-03-04T14:31:45;97889.19;;;14.50;32.79
72336;BME280;65062;48.446;8.834;2023-03-04T14:34:48;97894.13;;;13.04;34.17
72336;BME280;65062;48.446;8.834;2023-03-04T14:38:01;97897.44;;;11.49;38.71
72336;BME280;65062;48.446;8.834;2023-03-04T14:41:18;97892.47;;;11.10;39.13
72336;BME280;65062;48.446;8.834;2023-03-04T14:47:33;97894.81;;;13.46;34.45
72336;BME280;65062;48.446;8.834;2023-03-04T14:50:35;97884.13;;;15.01;31.87
72336;BME280;65062;48.446;8.834;2023-03-04T14:53:35;97882.72;;;14.72;32.11
72336;BME280;65062;48.446;8.834;2023-03-04T14:56:42;97876.56;;;14.32;31.48
72336;BME280;65062;48.446;8.834;2023-03-04T14:59:44;97877.19;;;13.40;33.27
72336;BME280;65062;48.446;8.834;2023-03-04T15:02:49;97874.16;;;12.04;36.44
72336;BME280;65062;48.446;8.834;2023-03-04T15:05:49;97877.31;;;12.14;36.76
72336;BME280;65062;48.446;8.834;2023-03-04T15:12:05;97871.53;;;14.63;31.60
72336;BME280;65062;48.446;8.834;2023-03-04T15:15:31;97875.41;;;14.48;32.06
72336;BME280;65062;48.446;8.834;2023-03-04T15:18:32;97891.09;;;13.07;33.85
72336;BME280;65062;48.446;8.834;2023-03-04T15:21:39;97874.28;;;13.69;32.58
72336;BME280;65062;48.446;8.834;2023-03-04T15:24:40;97887.75;;;14.47;30.17
72336;BME280;65062;48.446;8.834;2023-03-04T15:27:41;97881.22;;;12.03;35.06
72336;BME280;65062;48.446;8.834;2023-03-04T15:30:43;97885.78;;;13.00;33.49
72336;BME280;65062;48.446;8.834;2023-03-04T15:33:43;97897.94;;;13.63;32.98
72336;BME280;65062;48.446;8.834;2023-03-04T15:36:45;97883.47;;;14.40;31.44
72336;BME280;65062;48.446;8.834;2023-03-04T15:39:46;97883.81;;;12.39;35.22
72336;BME280;65062;48.446;8.834;2023-03-04T15:42:47;97890.75;;;11.61;35.59
72336;BME280;65062;48.446;8.834;2023-03-04T15:45:49;97887.75;;;12.28;34.67
72336;BME280;65062;48.446;8.834;2023-03-04T15:48:49;97894.56;;;10.78;37.66
72336;BME280;65062;48.446;8.834;2023-03-04T15:51:50;97905.19;;;10.00;40.50
72336;BME280;65062;48.446;8.834;2023-03-04T15:54:52;97902.41;;;9.17;41.17
72336;BME280;65062;48.446;8.834;2023-03-04T15:57:53;97905.84;;;8.37;43.09
72336;BME280;65062;48.446;8.834;2023-03-04T16:00:54;97902.22;;;7.64;44.65
72336;BME280;65062;48.446;8.834;2023-03-04T16:03:55;97909.69;;;7.51;46.55
72336;BME280;65062;48.446;8.834;2023-03-04T16:06:55;97915.66;;;6.32;49.51
72336;BME280;65062;48.446;8.834;2023-03-04T16:10:02;97909.63;;;5.96;50.30
72336;BME280;65062;48.446;8.834;2023-03-04T16:13:03;97909.63;;;5.33;52.37
72336;BME280;65062;48.446;8.834;2023-03-04T16:16:03;97908.41;;;4.91;55.04
72336;BME280;65062;48.446;8.834;2023-03-04T16:19:04;97924.28;;;4.59;55.23
72336;BME280;65062;48.446;8.834;2023-03-04T16:22:05;97913.78;;;4.22;56.36
72336;BME280;65062;48.446;8.834;2023-03-04T16:25:07;97914.44;;;3.96;56.93
72336;BME280;65062;48.446;8.834;2023-03-04T16:28:09;97919.06;;;3.73;58.30
72336;BME280;65062;48.446;8.834;2023-03-04T16:31:11;97918.19;;;3.63;59.43
72336;BME280;65062;48.446;8.834;2023-03-04T16:34:12;97918.03;;;3.55;59.72
72336;BME280;65062;48.446;8.834;2023-03-04T16:37:17;97921.34;;;3.27;60.58
72336;BME280;65062;48.446;8.834;2023-03-04T16:40:25;97920.66;;;3.05;61.44
72336;BME280;65062;48.446;8.834;2023-03-04T16:43:26;97919.22;;;2.91;61.87
72336;BME280;65062;48.446;8.834;2023-03-04T16:46:27;97924.63;;;2.79;62.32
72336;BME280;65062;48.446;8.834;2023-03-04T16:49:29;97923.63;;;2.70;63.04
72336;BME280;65062;48.446;8.834;2023-03-04T16:52:31;97926.56;;;2.66;63.20
72336;BME280;65062;48.446;8.834;2023-03-04T16:55:32;97923.03;;;2.67;63.24
72336;BME280;65062;48.446;8.834;2023-03-04T16:58:33;97921.53;;;2.64;63.39
72336;BME280;65062;48.446;8.834;2023-03-04T17:01:33;97928.28;;;2.56;63.71
72336;BME280;65062;48.446;8.834;2023-03-04T17:04:35;97930.66;;;2.48;64.01
72336;BME280;65062;48.446;8.834;2023-03-04T17:07:36;97927.75;;;2.41;64.33
72336;BME280;65062;48.446;8.834;2023-03-04T17:10:36;97925.31;;;2.40;64.24
72336;BME280;65062;48.446;8.834;2023-03-04T17:13:36;97924.84;;;2.35;65.23
72336;BME280;65062;48.446;8.834;2023-03-04T17:16:37;97937.97;;;2.43;64.67
72336;BME280;65062;48.446;8.834;2023-03-04T17:19:37;97942.91;;;2.35;65.16
72336;BME280;65062;48.446;8.834;2023-03-04T17:22:38;97938.22;;;2.40;64.75
72336;BME280;65062;48.446;8.834;2023-03-04T17:25:38;97943.88;;;2.34;64.92
72336;BME280;65062;48.446;8.834;2023-03-04T17:28:38;97957.94;;;2.30;65.41
72336;BME280;65062;48.446;8.834;2023-03-04T17:31:39;97950.56;;;2.25;65.55
72336;BME280;65062;48.446;8.834;2023-03-04T17:34:39;97960.34;;;2.22;65.36